Huvudsida
METAR-TAF:

METAR-TAF

Flygplatser :

Tawau, Malaysia

latitud: 04-16N, longitud: 117-53E, höjd: 18 m

Aktuellt väderrapport

Denna rapport gjordes för 44 minuter sedan, klockan 05:00 UTC
Stilla vind
Temperatur 30°C
Fuktighet 70%
Tryck 1008 hPa
Sikt 10 km eller mer
Få moln på en höjd av 1700 ft
Spridda moln på en höjd av 14000 ft
Brutna moln på en höjd av 28000 ft

METAR: WBKW 230500Z 00000KT 9999 FEW017 SCT140 BKN280 30/24 Q1008

Tid: 13:44 (05:44 UTC)

Väderprognos

Denna rapport gjordes för 44 minuter sedan, klockan 05:00 UTC
Prognos gäller från 23 kl. 06 UTC till 24 kl. 06 UTC
Vind 5 kt från nord
Sikt 10 km eller mer
Få moln på en höjd av 1700 ft

TAF: WBKW 230500Z 2306/2406 35005KT 9999 FEW017

Aktuella väderrapporter och prognoser från 4000 flygplatser (METAR- och TAF-rapporter).

De tillgängliga stationerna syns som gula och röda prickar på kartan.

För musen över prickarna för att se namnen på stationerna.

Klicka sedan för att få väderrapporter och prognoser.

För att ändra kartan: Klicka på de gröna knapparna med ett svart kors på för att zooma in; den gröna knappen med ett streck på för att zooma ut; eller på de gröna pilarna för angränsande kartor.


METAR-TAF: